sensor_id;sensor_type;location;lat;lon;timestamp;P1;durP1;ratioP1;P2;durP2;ratioP2
19623;SDS011;9959;49.798;9.928;2022-08-21T00:00:29;8.18;;;5.47;;
19623;SDS011;9959;49.798;9.928;2022-08-21T00:03:00;8.77;;;5.10;;
19623;SDS011;9959;49.798;9.928;2022-08-21T00:05:31;8.23;;;5.30;;
19623;SDS011;9959;49.798;9.928;2022-08-21T00:08:00;8.35;;;5.10;;
19623;SDS011;9959;49.798;9.928;2022-08-21T00:10:28;8.20;;;5.20;;
19623;SDS011;9959;49.798;9.928;2022-08-21T00:12:55;8.18;;;4.82;;
19623;SDS011;9959;49.798;9.928;2022-08-21T00:15:27;8.45;;;4.88;;
19623;SDS011;9959;49.798;9.928;2022-08-21T00:17:56;12.35;;;5.72;;
19623;SDS011;9959;49.798;9.928;2022-08-21T00:20:25;8.10;;;4.95;;
19623;SDS011;9959;49.798;9.928;2022-08-21T00:22:53;8.90;;;5.22;;
19623;SDS011;9959;49.798;9.928;2022-08-21T00:25:22;7.55;;;5.18;;
19623;SDS011;9959;49.798;9.928;2022-08-21T00:27:51;9.25;;;5.20;;
19623;SDS011;9959;49.798;9.928;2022-08-21T00:30:20;8.55;;;4.75;;
19623;SDS011;9959;49.798;9.928;2022-08-21T00:32:51;11.30;;;5.40;;
19623;SDS011;9959;49.798;9.928;2022-08-21T00:35:22;7.60;;;4.82;;
19623;SDS011;9959;49.798;9.928;2022-08-21T00:37:53;10.27;;;5.10;;
19623;SDS011;9959;49.798;9.928;2022-08-21T00:40:22;10.05;;;5.32;;
19623;SDS011;9959;49.798;9.928;2022-08-21T00:43:00;9.70;;;4.90;;
19623;SDS011;9959;49.798;9.928;2022-08-21T00:45:29;10.38;;;5.38;;
19623;SDS011;9959;49.798;9.928;2022-08-21T00:47:59;6.95;;;5.05;;
19623;SDS011;9959;49.798;9.928;2022-08-21T00:50:29;8.98;;;5.07;;
19623;SDS011;9959;49.798;9.928;2022-08-21T00:52:59;6.63;;;4.85;;
19623;SDS011;9959;49.798;9.928;2022-08-21T00:55:29;7.22;;;4.60;;
19623;SDS011;9959;49.798;9.928;2022-08-21T00:58:00;10.07;;;5.40;;
19623;SDS011;9959;49.798;9.928;2022-08-21T01:00:31;8.52;;;4.80;;
19623;SDS011;9959;49.798;9.928;2022-08-21T01:03:04;8.25;;;5.10;;
19623;SDS011;9959;49.798;9.928;2022-08-21T01:05:36;8.85;;;5.10;;
19623;SDS011;9959;49.798;9.928;2022-08-21T01:08:04;10.63;;;4.88;;
19623;SDS011;9959;49.798;9.928;2022-08-21T01:10:34;8.02;;;5.18;;
19623;SDS011;9959;49.798;9.928;2022-08-21T01:13:03;9.20;;;5.43;;
19623;SDS011;9959;49.798;9.928;2022-08-21T01:15:34;9.80;;;5.13;;
19623;SDS011;9959;49.798;9.928;2022-08-21T01:18:06;6.68;;;4.57;;
19623;SDS011;9959;49.798;9.928;2022-08-21T01:20:38;7.30;;;4.90;;
19623;SDS011;9959;49.798;9.928;2022-08-21T01:23:12;12.48;;;4.40;;
19623;SDS011;9959;49.798;9.928;2022-08-21T01:25:40;9.57;;;4.65;;
19623;SDS011;9959;49.798;9.928;2022-08-21T01:28:11;8.05;;;4.78;;
19623;SDS011;9959;49.798;9.928;2022-08-21T01:30:40;8.02;;;4.28;;
19623;SDS011;9959;49.798;9.928;2022-08-21T01:33:10;6.47;;;4.10;;
19623;SDS011;9959;49.798;9.928;2022-08-21T01:35:38;5.95;;;3.97;;
19623;SDS011;9959;49.798;9.928;2022-08-21T01:38:06;6.32;;;4.10;;
19623;SDS011;9959;49.798;9.928;2022-08-21T01:40:36;7.38;;;4.25;;
19623;SDS011;9959;49.798;9.928;2022-08-21T01:43:04;8.35;;;3.97;;
19623;SDS011;9959;49.798;9.928;2022-08-21T01:45:32;5.85;;;4.03;;
19623;SDS011;9959;49.798;9.928;2022-08-21T01:48:00;6.22;;;4.32;;
19623;SDS011;9959;49.798;9.928;2022-08-21T01:50:28;7.97;;;4.35;;
19623;SDS011;9959;49.798;9.928;2022-08-21T01:52:57;7.45;;;4.40;;
19623;SDS011;9959;49.798;9.928;2022-08-21T01:55:25;7.85;;;4.70;;
19623;SDS011;9959;49.798;9.928;2022-08-21T01:57:54;8.23;;;4.75;;
19623;SDS011;9959;49.798;9.928;2022-08-21T02:00:22;6.75;;;4.57;;
19623;SDS011;9959;49.798;9.928;2022-08-21T02:02:50;7.50;;;5.03;;
19623;SDS011;9959;49.798;9.928;2022-08-21T02:05:19;7.30;;;5.05;;
19623;SDS011;9959;49.798;9.928;2022-08-21T02:07:48;11.60;;;5.70;;
19623;SDS011;9959;49.798;9.928;2022-08-21T02:10:19;8.60;;;4.82;;
19623;SDS011;9959;49.798;9.928;2022-08-21T02:12:49;7.88;;;5.20;;
19623;SDS011;9959;49.798;9.928;2022-08-21T02:15:18;8.18;;;5.25;;
19623;SDS011;9959;49.798;9.928;2022-08-21T02:17:47;8.70;;;5.22;;
19623;SDS011;9959;49.798;9.928;2022-08-21T02:20:18;7.50;;;5.80;;
19623;SDS011;9959;49.798;9.928;2022-08-21T02:22:48;9.65;;;5.72;;
19623;SDS011;9959;49.798;9.928;2022-08-21T02:25:17;14.35;;;5.80;;
19623;SDS011;9959;49.798;9.928;2022-08-21T02:27:46;8.15;;;5.07;;
19623;SDS011;9959;49.798;9.928;2022-08-21T02:30:16;9.73;;;5.32;;
19623;SDS011;9959;49.798;9.928;2022-08-21T02:32:48;9.35;;;5.38;;
19623;SDS011;9959;49.798;9.928;2022-08-21T02:35:16;9.55;;;5.35;;
19623;SDS011;9959;49.798;9.928;2022-08-21T02:37:45;8.07;;;5.25;;
19623;SDS011;9959;49.798;9.928;2022-08-21T02:40:16;8.98;;;5.32;;
19623;SDS011;9959;49.798;9.928;2022-08-21T02:42:46;9.35;;;5.70;;
19623;SDS011;9959;49.798;9.928;2022-08-21T02:45:14;8.48;;;4.95;;
19623;SDS011;9959;49.798;9.928;2022-08-21T02:47:48;7.93;;;5.25;;
19623;SDS011;9959;49.798;9.928;2022-08-21T02:50:17;9.25;;;5.57;;
19623;SDS011;9959;49.798;9.928;2022-08-21T02:52:48;8.65;;;5.80;;
19623;SDS011;9959;49.798;9.928;2022-08-21T02:55:20;11.20;;;6.07;;
19623;SDS011;9959;49.798;9.928;2022-08-21T02:57:49;12.52;;;6.40;;
19623;SDS011;9959;49.798;9.928;2022-08-21T03:00:17;12.15;;;6.38;;
19623;SDS011;9959;49.798;9.928;2022-08-21T03:02:48;12.20;;;6.55;;
19623;SDS011;9959;49.798;9.928;2022-08-21T03:05:17;9.38;;;6.43;;
19623;SDS011;9959;49.798;9.928;2022-08-21T03:07:46;11.48;;;6.05;;
19623;SDS011;9959;49.798;9.928;2022-08-21T03:10:14;12.05;;;5.68;;
19623;SDS011;9959;49.798;9.928;2022-08-21T03:12:43;11.25;;;6.28;;
19623;SDS011;9959;49.798;9.928;2022-08-21T03:15:12;11.93;;;6.32;;
19623;SDS011;9959;49.798;9.928;2022-08-21T03:17:43;10.57;;;6.25;;
19623;SDS011;9959;49.798;9.928;2022-08-21T03:20:14;11.82;;;6.40;;
19623;SDS011;9959;49.798;9.928;2022-08-21T03:22:43;11.00;;;7.22;;
19623;SDS011;9959;49.798;9.928;2022-08-21T03:25:23;21.80;;;7.78;;
19623;SDS011;9959;49.798;9.928;2022-08-21T03:28:05;11.40;;;7.50;;
19623;SDS011;9959;49.798;9.928;2022-08-21T03:30:38;14.10;;;7.13;;
19623;SDS011;9959;49.798;9.928;2022-08-21T03:33:07;12.02;;;7.05;;
19623;SDS011;9959;49.798;9.928;2022-08-21T03:35:41;12.10;;;7.70;;
19623;SDS011;9959;49.798;9.928;2022-08-21T03:38:11;16.02;;;8.07;;
19623;SDS011;9959;49.798;9.928;2022-08-21T03:40:40;16.70;;;7.65;;
19623;SDS011;9959;49.798;9.928;2022-08-21T03:43:08;13.13;;;7.32;;
19623;SDS011;9959;49.798;9.928;2022-08-21T03:45:36;14.20;;;7.68;;
19623;SDS011;9959;49.798;9.928;2022-08-21T03:48:05;12.82;;;7.07;;
19623;SDS011;9959;49.798;9.928;2022-08-21T03:50:36;15.15;;;8.50;;
19623;SDS011;9959;49.798;9.928;2022-08-21T03:53:09;15.27;;;9.05;;
19623;SDS011;9959;49.798;9.928;2022-08-21T03:55:43;12.30;;;7.72;;
19623;SDS011;9959;49.798;9.928;2022-08-21T03:58:12;13.20;;;6.53;;
19623;SDS011;9959;49.798;9.928;2022-08-21T04:00:42;11.30;;;7.13;;
19623;SDS011;9959;49.798;9.928;2022-08-21T04:03:11;12.20;;;7.28;;
19623;SDS011;9959;49.798;9.928;2022-08-21T04:05:38;13.80;;;7.60;;
19623;SDS011;9959;49.798;9.928;2022-08-21T04:08:08;13.23;;;7.45;;
19623;SDS011;9959;49.798;9.928;2022-08-21T04:10:37;11.52;;;6.88;;
19623;SDS011;9959;49.798;9.928;2022-08-21T04:13:07;11.40;;;6.57;;
19623;SDS011;9959;49.798;9.928;2022-08-21T04:15:35;10.32;;;6.15;;
19623;SDS011;9959;49.798;9.928;2022-08-21T04:18:03;12.23;;;6.47;;
19623;SDS011;9959;49.798;9.928;2022-08-21T04:20:32;12.77;;;6.85;;
19623;SDS011;9959;49.798;9.928;2022-08-21T04:23:00;10.88;;;6.70;;
19623;SDS011;9959;49.798;9.928;2022-08-21T04:25:30;15.40;;;6.90;;
19623;SDS011;9959;49.798;9.928;2022-08-21T04:27:58;12.27;;;6.88;;
19623;SDS011;9959;49.798;9.928;2022-08-21T04:30:26;10.70;;;7.10;;
19623;SDS011;9959;49.798;9.928;2022-08-21T04:32:54;11.25;;;6.50;;
19623;SDS011;9959;49.798;9.928;2022-08-21T04:35:25;13.23;;;7.40;;
19623;SDS011;9959;49.798;9.928;2022-08-21T04:37:55;14.23;;;7.55;;
19623;SDS011;9959;49.798;9.928;2022-08-21T04:40:24;12.32;;;6.53;;
19623;SDS011;9959;49.798;9.928;2022-08-21T04:42:56;11.68;;;7.15;;
19623;SDS011;9959;49.798;9.928;2022-08-21T04:45:28;11.65;;;6.93;;
19623;SDS011;9959;49.798;9.928;2022-08-21T04:47:59;10.68;;;6.50;;
19623;SDS011;9959;49.798;9.928;2022-08-21T04:50:29;16.05;;;7.75;;
19623;SDS011;9959;49.798;9.928;2022-08-21T04:53:05;9.85;;;6.53;;
19623;SDS011;9959;49.798;9.928;2022-08-21T04:55:38;12.02;;;6.95;;
19623;SDS011;9959;49.798;9.928;2022-08-21T04:58:09;14.80;;;8.23;;
19623;SDS011;9959;49.798;9.928;2022-08-21T05:00:40;15.10;;;8.02;;
19623;SDS011;9959;49.798;9.928;2022-08-21T05:03:08;12.10;;;7.47;;
19623;SDS011;9959;49.798;9.928;2022-08-21T05:05:38;12.57;;;7.63;;
19623;SDS011;9959;49.798;9.928;2022-08-21T05:08:07;12.38;;;7.20;;
19623;SDS011;9959;49.798;9.928;2022-08-21T05:10:39;11.75;;;7.38;;
19623;SDS011;9959;49.798;9.928;2022-08-21T05:13:09;12.02;;;7.60;;
19623;SDS011;9959;49.798;9.928;2022-08-21T05:15:39;13.40;;;7.57;;
19623;SDS011;9959;49.798;9.928;2022-08-21T05:18:08;12.32;;;6.63;;
19623;SDS011;9959;49.798;9.928;2022-08-21T05:20:36;14.43;;;7.50;;
19623;SDS011;9959;49.798;9.928;2022-08-21T05:23:06;12.65;;;7.28;;
19623;SDS011;9959;49.798;9.928;2022-08-21T05:25:35;14.70;;;8.50;;
19623;SDS011;9959;49.798;9.928;2022-08-21T05:28:03;12.60;;;7.63;;
19623;SDS011;9959;49.798;9.928;2022-08-21T05:30:33;14.80;;;7.32;;
19623;SDS011;9959;49.798;9.928;2022-08-21T05:33:02;11.23;;;7.13;;
19623;SDS011;9959;49.798;9.928;2022-08-21T05:35:32;11.65;;;7.32;;
19623;SDS011;9959;49.798;9.928;2022-08-21T05:38:01;11.88;;;7.47;;
19623;SDS011;9959;49.798;9.928;2022-08-21T05:40:30;12.73;;;6.60;;
19623;SDS011;9959;49.798;9.928;2022-08-21T05:42:58;11.52;;;7.28;;
19623;SDS011;9959;49.798;9.928;2022-08-21T05:45:28;9.48;;;6.38;;
19623;SDS011;9959;49.798;9.928;2022-08-21T05:48:10;13.40;;;7.45;;
19623;SDS011;9959;49.798;9.928;2022-08-21T05:50:39;13.18;;;7.00;;
19623;SDS011;9959;49.798;9.928;2022-08-21T05:53:08;12.55;;;6.97;;
19623;SDS011;9959;49.798;9.928;2022-08-21T05:55:37;14.68;;;7.40;;
19623;SDS011;9959;49.798;9.928;2022-08-21T05:58:10;13.98;;;8.05;;
19623;SDS011;9959;49.798;9.928;2022-08-21T06:00:38;12.38;;;7.55;;
19623;SDS011;9959;49.798;9.928;2022-08-21T06:03:11;13.88;;;7.28;;
19623;SDS011;9959;49.798;9.928;2022-08-21T06:05:41;14.35;;;7.75;;
19623;SDS011;9959;49.798;9.928;2022-08-21T06:08:09;14.70;;;7.80;;
19623;SDS011;9959;49.798;9.928;2022-08-21T06:10:37;15.90;;;8.15;;
19623;SDS011;9959;49.798;9.928;2022-08-21T06:13:06;12.77;;;7.68;;
19623;SDS011;9959;49.798;9.928;2022-08-21T06:15:34;12.88;;;7.97;;
19623;SDS011;9959;49.798;9.928;2022-08-21T06:18:02;12.25;;;7.82;;
19623;SDS011;9959;49.798;9.928;2022-08-21T06:20:31;14.85;;;7.32;;
19623;SDS011;9959;49.798;9.928;2022-08-21T06:23:00;9.23;;;6.60;;
19623;SDS011;9959;49.798;9.928;2022-08-21T06:25:28;13.10;;;7.47;;
19623;SDS011;9959;49.798;9.928;2022-08-21T06:28:00;11.05;;;7.00;;
19623;SDS011;9959;49.798;9.928;2022-08-21T06:30:29;11.98;;;7.63;;
19623;SDS011;9959;49.798;9.928;2022-08-21T06:32:57;12.38;;;7.57;;
19623;SDS011;9959;49.798;9.928;2022-08-21T06:35:25;13.00;;;6.97;;
19623;SDS011;9959;49.798;9.928;2022-08-21T06:37:56;12.57;;;7.28;;
19623;SDS011;9959;49.798;9.928;2022-08-21T06:40:25;10.48;;;6.57;;
19623;SDS011;9959;49.798;9.928;2022-08-21T06:42:55;14.15;;;7.55;;
19623;SDS011;9959;49.798;9.928;2022-08-21T06:45:26;11.77;;;7.57;;
19623;SDS011;9959;49.798;9.928;2022-08-21T06:47:58;14.13;;;7.30;;
19623;SDS011;9959;49.798;9.928;2022-08-21T06:50:26;12.73;;;7.30;;
19623;SDS011;9959;49.798;9.928;2022-08-21T06:53:02;11.93;;;6.63;;
19623;SDS011;9959;49.798;9.928;2022-08-21T06:55:31;12.73;;;7.40;;
19623;SDS011;9959;49.798;9.928;2022-08-21T06:57:59;13.93;;;7.57;;
19623;SDS011;9959;49.798;9.928;2022-08-21T07:00:28;12.50;;;7.03;;
19623;SDS011;9959;49.798;9.928;2022-08-21T07:02:56;11.23;;;6.82;;
19623;SDS011;9959;49.798;9.928;2022-08-21T07:05:25;11.48;;;7.50;;
19623;SDS011;9959;49.798;9.928;2022-08-21T07:07:54;10.57;;;7.15;;
19623;SDS011;9959;49.798;9.928;2022-08-21T07:10:24;13.90;;;6.97;;
19623;SDS011;9959;49.798;9.928;2022-08-21T07:12:53;13.20;;;7.20;;
19623;SDS011;9959;49.798;9.928;2022-08-21T07:15:26;10.95;;;6.65;;
19623;SDS011;9959;49.798;9.928;2022-08-21T07:17:56;11.18;;;6.82;;
19623;SDS011;9959;49.798;9.928;2022-08-21T07:20:24;13.02;;;6.72;;
19623;SDS011;9959;49.798;9.928;2022-08-21T07:22:53;10.88;;;6.47;;
19623;SDS011;9959;49.798;9.928;2022-08-21T07:25:21;8.60;;;5.80;;
19623;SDS011;9959;49.798;9.928;2022-08-21T07:27:50;9.82;;;6.43;;
19623;SDS011;9959;49.798;9.928;2022-08-21T07:30:18;7.63;;;5.45;;
19623;SDS011;9959;49.798;9.928;2022-08-21T07:32:52;8.23;;;5.70;;
19623;SDS011;9959;49.798;9.928;2022-08-21T07:35:21;9.82;;;5.85;;
19623;SDS011;9959;49.798;9.928;2022-08-21T07:37:50;8.10;;;5.43;;
19623;SDS011;9959;49.798;9.928;2022-08-21T07:40:18;18.88;;;6.13;;
19623;SDS011;9959;49.798;9.928;2022-08-21T07:42:47;8.10;;;6.03;;
19623;SDS011;9959;49.798;9.928;2022-08-21T07:45:20;11.40;;;6.03;;
19623;SDS011;9959;49.798;9.928;2022-08-21T07:47:50;11.05;;;5.75;;
19623;SDS011;9959;49.798;9.928;2022-08-21T07:50:23;11.15;;;5.82;;
19623;SDS011;9959;49.798;9.928;2022-08-21T07:52:51;9.50;;;5.50;;
19623;SDS011;9959;49.798;9.928;2022-08-21T07:55:20;7.75;;;5.35;;
19623;SDS011;9959;49.798;9.928;2022-08-21T07:57:50;18.08;;;7.57;;
19623;SDS011;9959;49.798;9.928;2022-08-21T08:00:21;9.73;;;5.07;;
19623;SDS011;9959;49.798;9.928;2022-08-21T08:02:51;6.50;;;4.93;;
19623;SDS011;9959;49.798;9.928;2022-08-21T08:05:21;6.47;;;4.65;;
19623;SDS011;9959;49.798;9.928;2022-08-21T08:07:50;6.88;;;5.00;;
19623;SDS011;9959;49.798;9.928;2022-08-21T08:10:18;6.82;;;4.82;;
19623;SDS011;9959;49.798;9.928;2022-08-21T08:12:47;8.30;;;5.07;;
19623;SDS011;9959;49.798;9.928;2022-08-21T08:15:18;6.05;;;4.35;;
19623;SDS011;9959;49.798;9.928;2022-08-21T08:17:53;5.57;;;4.72;;
19623;SDS011;9959;49.798;9.928;2022-08-21T08:20:21;6.32;;;4.75;;
19623;SDS011;9959;49.798;9.928;2022-08-21T08:22:51;8.32;;;5.75;;
19623;SDS011;9959;49.798;9.928;2022-08-21T08:25:19;7.43;;;5.20;;
19623;SDS011;9959;49.798;9.928;2022-08-21T08:27:49;8.15;;;4.95;;
19623;SDS011;9959;49.798;9.928;2022-08-21T08:30:17;7.50;;;5.32;;
19623;SDS011;9959;49.798;9.928;2022-08-21T08:32:48;6.05;;;5.05;;
19623;SDS011;9959;49.798;9.928;2022-08-21T08:35:16;7.82;;;5.28;;
19623;SDS011;9959;49.798;9.928;2022-08-21T08:37:49;6.60;;;4.85;;
19623;SDS011;9959;49.798;9.928;2022-08-21T08:40:19;6.65;;;4.88;;
19623;SDS011;9959;49.798;9.928;2022-08-21T08:42:51;8.25;;;5.45;;
19623;SDS011;9959;49.798;9.928;2022-08-21T08:45:21;7.70;;;5.85;;
19623;SDS011;9959;49.798;9.928;2022-08-21T08:47:51;8.73;;;5.55;;
19623;SDS011;9959;49.798;9.928;2022-08-21T08:50:25;6.93;;;5.55;;
19623;SDS011;9959;49.798;9.928;2022-08-21T08:53:08;6.88;;;5.00;;
19623;SDS011;9959;49.798;9.928;2022-08-21T08:55:43;6.78;;;4.90;;
19623;SDS011;9959;49.798;9.928;2022-08-21T08:58:14;5.10;;;4.50;;
19623;SDS011;9959;49.798;9.928;2022-08-21T09:00:49;6.20;;;4.60;;
19623;SDS011;9959;49.798;9.928;2022-08-21T09:03:20;7.05;;;4.30;;
19623;SDS011;9959;49.798;9.928;2022-08-21T09:05:50;6.30;;;4.95;;
19623;SDS011;9959;49.798;9.928;2022-08-21T09:08:35;5.22;;;4.00;;
19623;SDS011;9959;49.798;9.928;2022-08-21T09:11:13;4.68;;;3.92;;
19623;SDS011;9959;49.798;9.928;2022-08-21T09:13:50;6.28;;;4.82;;
19623;SDS011;9959;49.798;9.928;2022-08-21T09:16:31;6.85;;;4.68;;
19623;SDS011;9959;49.798;9.928;2022-08-21T09:19:10;4.80;;;4.00;;
19623;SDS011;9959;49.798;9.928;2022-08-21T09:21:53;4.78;;;4.28;;
19623;SDS011;9959;49.798;9.928;2022-08-21T09:24:29;4.32;;;3.92;;
19623;SDS011;9959;49.798;9.928;2022-08-21T09:27:02;5.25;;;4.30;;
19623;SDS011;9959;49.798;9.928;2022-08-21T09:29:35;4.72;;;4.25;;
19623;SDS011;9959;49.798;9.928;2022-08-21T09:32:10;7.28;;;4.20;;
19623;SDS011;9959;49.798;9.928;2022-08-21T09:34:54;7.00;;;4.85;;
19623;SDS011;9959;49.798;9.928;2022-08-21T09:37:24;5.57;;;4.10;;
19623;SDS011;9959;49.798;9.928;2022-08-21T09:39:55;5.35;;;4.38;;
19623;SDS011;9959;49.798;9.928;2022-08-21T09:42:26;6.78;;;4.20;;
19623;SDS011;9959;49.798;9.928;2022-08-21T09:45:05;5.03;;;4.30;;
19623;SDS011;9959;49.798;9.928;2022-08-21T09:47:41;5.18;;;4.13;;
19623;SDS011;9959;49.798;9.928;2022-08-21T09:50:12;6.03;;;3.78;;
19623;SDS011;9959;49.798;9.928;2022-08-21T09:52:43;6.13;;;3.63;;
19623;SDS011;9959;49.798;9.928;2022-08-21T09:55:19;5.70;;;3.80;;
19623;SDS011;9959;49.798;9.928;2022-08-21T09:58:11;4.63;;;3.67;;
19623;SDS011;9959;49.798;9.928;2022-08-21T10:00:39;4.60;;;2.80;;
19623;SDS011;9959;49.798;9.928;2022-08-21T10:03:09;4.57;;;3.60;;
19623;SDS011;9959;49.798;9.928;2022-08-21T10:05:39;5.22;;;3.40;;
19623;SDS011;9959;49.798;9.928;2022-08-21T10:08:16;6.30;;;2.95;;
19623;SDS011;9959;49.798;9.928;2022-08-21T10:10:45;4.65;;;3.53;;
19623;SDS011;9959;49.798;9.928;2022-08-21T10:13:22;3.28;;;2.97;;
19623;SDS011;9959;49.798;9.928;2022-08-21T10:16:00;6.18;;;3.63;;
19623;SDS011;9959;49.798;9.928;2022-08-21T10:18:38;4.03;;;3.38;;
19623;SDS011;9959;49.798;9.928;2022-08-21T10:21:10;5.90;;;3.78;;
19623;SDS011;9959;49.798;9.928;2022-08-21T10:23:48;4.05;;;3.65;;
19623;SDS011;9959;49.798;9.928;2022-08-21T10:26:26;16.80;;;11.68;;
19623;SDS011;9959;49.798;9.928;2022-08-21T10:29:06;19.17;;;10.57;;
19623;SDS011;9959;49.798;9.928;2022-08-21T10:31:53;7.82;;;4.75;;
19623;SDS011;9959;49.798;9.928;2022-08-21T10:34:49;13.50;;;9.07;;
19623;SDS011;9959;49.798;9.928;2022-08-21T10:37:27;7.22;;;6.22;;
19623;SDS011;9959;49.798;9.928;2022-08-21T10:40:07;3.78;;;3.35;;
19623;SDS011;9959;49.798;9.928;2022-08-21T10:42:47;3.67;;;3.25;;
19623;SDS011;9959;49.798;9.928;2022-08-21T10:45:27;3.33;;;3.03;;
19623;SDS011;9959;49.798;9.928;2022-08-21T10:48:04;4.05;;;3.15;;
19623;SDS011;9959;49.798;9.928;2022-08-21T10:50:37;4.07;;;2.97;;
19623;SDS011;9959;49.798;9.928;2022-08-21T10:53:15;4.00;;;2.80;;
19623;SDS011;9959;49.798;9.928;2022-08-21T10:55:51;3.25;;;2.95;;
19623;SDS011;9959;49.798;9.928;2022-08-21T10:58:25;4.10;;;3.30;;
19623;SDS011;9959;49.798;9.928;2022-08-21T11:00:57;3.97;;;3.10;;
19623;SDS011;9959;49.798;9.928;2022-08-21T11:03:32;3.75;;;2.85;;
19623;SDS011;9959;49.798;9.928;2022-08-21T11:06:05;4.35;;;3.30;;
19623;SDS011;9959;49.798;9.928;2022-08-21T11:08:39;4.45;;;3.33;;
19623;SDS011;9959;49.798;9.928;2022-08-21T11:11:12;5.30;;;2.78;;
19623;SDS011;9959;49.798;9.928;2022-08-21T11:13:48;5.20;;;3.10;;
19623;SDS011;9959;49.798;9.928;2022-08-21T11:16:21;5.07;;;2.97;;
19623;SDS011;9959;49.798;9.928;2022-08-21T11:18:55;4.45;;;3.15;;
19623;SDS011;9959;49.798;9.928;2022-08-21T11:21:32;6.93;;;3.28;;
19623;SDS011;9959;49.798;9.928;2022-08-21T11:24:13;3.55;;;3.10;;
19623;SDS011;9959;49.798;9.928;2022-08-21T11:26:49;4.00;;;3.00;;
19623;SDS011;9959;49.798;9.928;2022-08-21T11:29:23;4.50;;;3.38;;
19623;SDS011;9959;49.798;9.928;2022-08-21T11:31:58;4.82;;;3.60;;
19623;SDS011;9959;49.798;9.928;2022-08-21T11:34:51;4.72;;;3.35;;
19623;SDS011;9959;49.798;9.928;2022-08-21T11:37:30;4.75;;;3.75;;
19623;SDS011;9959;49.798;9.928;2022-08-21T11:40:12;5.40;;;3.40;;
19623;SDS011;9959;49.798;9.928;2022-08-21T11:42:50;18.73;;;4.63;;
19623;SDS011;9959;49.798;9.928;2022-08-21T11:45:30;7.80;;;3.75;;
19623;SDS011;9959;49.798;9.928;2022-08-21T11:48:07;5.72;;;3.72;;
19623;SDS011;9959;49.798;9.928;2022-08-21T11:50:43;4.78;;;2.95;;
19623;SDS011;9959;49.798;9.928;2022-08-21T11:53:16;7.53;;;3.17;;
19623;SDS011;9959;49.798;9.928;2022-08-21T11:55:50;4.20;;;2.97;;
19623;SDS011;9959;49.798;9.928;2022-08-21T11:58:24;3.42;;;2.88;;
19623;SDS011;9959;49.798;9.928;2022-08-21T12:00:56;5.72;;;3.28;;
19623;SDS011;9959;49.798;9.928;2022-08-21T12:03:28;5.53;;;3.35;;
19623;SDS011;9959;49.798;9.928;2022-08-21T12:06:00;5.25;;;3.33;;
19623;SDS011;9959;49.798;9.928;2022-08-21T12:08:31;4.50;;;3.00;;
19623;SDS011;9959;49.798;9.928;2022-08-21T12:11:04;3.78;;;2.65;;
19623;SDS011;9959;49.798;9.928;2022-08-21T12:13:34;4.95;;;3.10;;
19623;SDS011;9959;49.798;9.928;2022-08-21T12:16:08;6.22;;;3.42;;
19623;SDS011;9959;49.798;9.928;2022-08-21T12:18:38;5.20;;;3.28;;
19623;SDS011;9959;49.798;9.928;2022-08-21T12:21:17;5.07;;;3.15;;
19623;SDS011;9959;49.798;9.928;2022-08-21T12:23:59;3.88;;;2.72;;
19623;SDS011;9959;49.798;9.928;2022-08-21T12:26:30;3.47;;;2.88;;
19623;SDS011;9959;49.798;9.928;2022-08-21T12:29:05;4.75;;;3.40;;
19623;SDS011;9959;49.798;9.928;2022-08-21T12:31:47;3.55;;;2.97;;
19623;SDS011;9959;49.798;9.928;2022-08-21T12:34:20;3.17;;;2.72;;
19623;SDS011;9959;49.798;9.928;2022-08-21T12:36:53;2.90;;;2.60;;
19623;SDS011;9959;49.798;9.928;2022-08-21T12:39:26;2.50;;;2.20;;
19623;SDS011;9959;49.798;9.928;2022-08-21T12:41:57;4.53;;;2.83;;
19623;SDS011;9959;49.798;9.928;2022-08-21T12:44:30;4.25;;;3.08;;
19623;SDS011;9959;49.798;9.928;2022-08-21T12:47:04;3.88;;;2.97;;
19623;SDS011;9959;49.798;9.928;2022-08-21T12:49:35;3.85;;;3.10;;
19623;SDS011;9959;49.798;9.928;2022-08-21T12:52:07;4.00;;;3.35;;
19623;SDS011;9959;49.798;9.928;2022-08-21T12:54:43;4.45;;;3.25;;
19623;SDS011;9959;49.798;9.928;2022-08-21T12:57:17;7.22;;;3.20;;
19623;SDS011;9959;49.798;9.928;2022-08-21T12:59:54;4.15;;;3.20;;
19623;SDS011;9959;49.798;9.928;2022-08-21T13:02:23;3.63;;;2.85;;
19623;SDS011;9959;49.798;9.928;2022-08-21T13:04:53;3.03;;;2.72;;
19623;SDS011;9959;49.798;9.928;2022-08-21T13:07:25;3.80;;;2.50;;
19623;SDS011;9959;49.798;9.928;2022-08-21T13:09:59;4.35;;;2.90;;
19623;SDS011;9959;49.798;9.928;2022-08-21T13:12:30;5.40;;;3.20;;
19623;SDS011;9959;49.798;9.928;2022-08-21T13:15:00;3.17;;;2.60;;
19623;SDS011;9959;49.798;9.928;2022-08-21T13:17:35;4.03;;;2.70;;
19623;SDS011;9959;49.798;9.928;2022-08-21T13:20:07;4.68;;;3.10;;
19623;SDS011;9959;49.798;9.928;2022-08-21T13:22:40;4.18;;;2.83;;
19623;SDS011;9959;49.798;9.928;2022-08-21T13:25:11;4.70;;;2.60;;
19623;SDS011;9959;49.798;9.928;2022-08-21T13:27:42;3.10;;;2.65;;
19623;SDS011;9959;49.798;9.928;2022-08-21T13:30:17;3.42;;;2.88;;
19623;SDS011;9959;49.798;9.928;2022-08-21T13:32:50;3.67;;;2.88;;
19623;SDS011;9959;49.798;9.928;2022-08-21T13:35:24;2.97;;;2.53;;
19623;SDS011;9959;49.798;9.928;2022-08-21T13:37:55;4.72;;;3.30;;
19623;SDS011;9959;49.798;9.928;2022-08-21T13:40:26;3.28;;;2.92;;
19623;SDS011;9959;49.798;9.928;2022-08-21T13:43:10;3.75;;;3.00;;
19623;SDS011;9959;49.798;9.928;2022-08-21T13:45:47;3.28;;;2.50;;
19623;SDS011;9959;49.798;9.928;2022-08-21T13:48:16;4.40;;;2.40;;
19623;SDS011;9959;49.798;9.928;2022-08-21T13:50:44;4.68;;;3.17;;
19623;SDS011;9959;49.798;9.928;2022-08-21T13:53:20;3.70;;;2.70;;
19623;SDS011;9959;49.798;9.928;2022-08-21T13:55:52;2.80;;;2.50;;
19623;SDS011;9959;49.798;9.928;2022-08-21T13:58:25;4.32;;;2.72;;
19623;SDS011;9959;49.798;9.928;2022-08-21T14:00:55;3.55;;;3.00;;
19623;SDS011;9959;49.798;9.928;2022-08-21T14:03:32;3.28;;;2.85;;
19623;SDS011;9959;49.798;9.928;2022-08-21T14:06:02;4.45;;;2.55;;
19623;SDS011;9959;49.798;9.928;2022-08-21T14:08:40;4.22;;;2.95;;
19623;SDS011;9959;49.798;9.928;2022-08-21T14:11:12;4.88;;;3.35;;
19623;SDS011;9959;49.798;9.928;2022-08-21T14:13:41;4.70;;;2.50;;
19623;SDS011;9959;49.798;9.928;2022-08-21T14:16:16;4.22;;;2.70;;
19623;SDS011;9959;49.798;9.928;2022-08-21T14:18:47;3.75;;;3.00;;
19623;SDS011;9959;49.798;9.928;2022-08-21T14:21:24;3.65;;;2.72;;
19623;SDS011;9959;49.798;9.928;2022-08-21T14:24:03;3.47;;;3.17;;
19623;SDS011;9959;49.798;9.928;2022-08-21T14:26:36;3.63;;;2.90;;
19623;SDS011;9959;49.798;9.928;2022-08-21T14:29:12;3.75;;;2.75;;
19623;SDS011;9959;49.798;9.928;2022-08-21T14:31:42;5.00;;;2.97;;
19623;SDS011;9959;49.798;9.928;2022-08-21T14:34:11;4.55;;;2.80;;
19623;SDS011;9959;49.798;9.928;2022-08-21T14:36:45;3.97;;;2.78;;
19623;SDS011;9959;49.798;9.928;2022-08-21T14:39:14;4.55;;;3.28;;
19623;SDS011;9959;49.798;9.928;2022-08-21T14:41:44;5.35;;;3.58;;
19623;SDS011;9959;49.798;9.928;2022-08-21T14:44:15;4.95;;;3.25;;
19623;SDS011;9959;49.798;9.928;2022-08-21T14:46:44;3.55;;;2.75;;
19623;SDS011;9959;49.798;9.928;2022-08-21T14:49:21;3.58;;;2.95;;
19623;SDS011;9959;49.798;9.928;2022-08-21T14:51:49;3.30;;;3.00;;
19623;SDS011;9959;49.798;9.928;2022-08-21T14:54:23;3.45;;;2.88;;
19623;SDS011;9959;49.798;9.928;2022-08-21T14:56:58;4.07;;;3.17;;
19623;SDS011;9959;49.798;9.928;2022-08-21T14:59:29;3.90;;;3.40;;
19623;SDS011;9959;49.798;9.928;2022-08-21T15:01:59;6.03;;;3.55;;
19623;SDS011;9959;49.798;9.928;2022-08-21T15:04:27;5.57;;;3.47;;
19623;SDS011;9959;49.798;9.928;2022-08-21T15:06:55;5.20;;;2.97;;
19623;SDS011;9959;49.798;9.928;2022-08-21T15:09:23;3.17;;;2.88;;
19623;SDS011;9959;49.798;9.928;2022-08-21T15:11:51;4.25;;;3.03;;
19623;SDS011;9959;49.798;9.928;2022-08-21T15:14:23;3.47;;;2.90;;
19623;SDS011;9959;49.798;9.928;2022-08-21T15:16:53;8.07;;;3.63;;
19623;SDS011;9959;49.798;9.928;2022-08-21T15:19:21;4.20;;;3.15;;
19623;SDS011;9959;49.798;9.928;2022-08-21T15:21:50;5.32;;;3.50;;
19623;SDS011;9959;49.798;9.928;2022-08-21T15:24:20;4.38;;;3.28;;